Time;durP1;ratioP1;P1;durP2;ratioP2;P2;SDS_P1;SDS_P2;PMS_P1;PMS_P2;Temp;Humidity;BMP_temperature;BMP_pressure;BME280_temperature;BME280_humidity;BME280_pressure;Samples;Min_cycle;Max_cycle;Signal;HPM_P1;HPM_P2
2023/08/23 00:02:02;;;;;;;24.13;16.23;;;;;;;;;;5031602;28;20049;-80
2023/08/23 00:04:49;;;;;;;20.00;14.85;;;;;;;;;;5031593;28;20053;-78
2023/08/23 00:07:35;;;;;;;17.73;15.75;;;;;;;;;;5030200;28;20042;-79
2023/08/23 00:10:20;;;;;;;19.30;16.30;;;;;;;;;;5031450;28;20408;-77
2023/08/23 00:13:06;;;;;;;18.88;15.80;;;;;;;;;;5031566;28;20045;-78
2023/08/23 00:15:52;;;;;;;16.60;14.93;;;;;;;;;;5037158;28;20400;-77
2023/08/23 00:18:37;;;;;;;18.80;16.10;;;;;;;;;;5031403;28;20057;-77
2023/08/23 00:21:23;;;;;;;17.83;15.85;;;;;;;;;;5031302;28;20045;-78
2023/08/23 00:24:08;;;;;;;19.20;15.57;;;;;;;;;;5030725;28;20049;-78
2023/08/23 00:26:54;;;;;;;20.88;14.80;;;;;;;;;;5037230;28;20400;-77
2023/08/23 00:29:40;;;;;;;22.45;16.67;;;;;;;;;;5036472;28;20046;-77
2023/08/23 00:32:25;;;;;;;25.52;19.38;;;;;;;;;;5036629;28;20411;-79
2023/08/23 00:35:11;;;;;;;31.08;19.35;;;;;;;;;;5036918;28;20385;-77
2023/08/23 00:37:56;;;;;;;30.67;18.23;;;;;;;;;;5037402;28;20049;-78
2023/08/23 00:40:42;;;;;;;28.02;17.60;;;;;;;;;;5030900;28;20396;-78
2023/08/23 00:43:28;;;;;;;29.77;18.02;;;;;;;;;;5036446;28;20042;-78
2023/08/23 00:46:15;;;;;;;51.20;35.25;;;;;;;;;;5031028;28;20053;-79
2023/08/23 00:49:00;;;;;;;28.42;18.70;;;;;;;;;;5029927;28;20049;-79
2023/08/23 00:51:45;;;;;;;28.35;19.10;;;;;;;;;;5036584;28;20037;-80
2023/08/23 00:54:31;;;;;;;23.30;17.70;;;;;;;;;;5036243;28;20488;-80
2023/08/23 00:57:18;;;;;;;31.38;18.77;;;;;;;;;;5030628;28;20048;-78
2023/08/23 01:00:04;;;;;;;19.63;16.27;;;;;;;;;;5036286;28;20042;-78
2023/08/23 01:02:50;;;;;;;21.27;15.50;;;;;;;;;;5036483;28;20041;-79
2023/08/23 01:05:47;;;;;;;22.30;15.43;;;;;;;;;;5030875;28;20037;-77
2023/08/23 01:09:03;;;;;;;23.27;16.15;;;;;;;;;;5035836;28;20041;-78
2023/08/23 01:12:33;;;;;;;25.08;16.05;;;;;;;;;;5036202;28;20045;-80
2023/08/23 01:15:21;;;;;;;20.52;16.05;;;;;;;;;;5030444;28;20041;-78
2023/08/23 01:18:06;;;;;;;19.75;16.38;;;;;;;;;;5035848;28;20411;-78
2023/08/23 01:20:53;;;;;;;21.52;15.85;;;;;;;;;;5030354;28;20037;-79
2023/08/23 01:23:41;;;;;;;19.00;16.52;;;;;;;;;;5035685;28;20045;-78
2023/08/23 01:26:26;;;;;;;18.00;15.98;;;;;;;;;;5035604;28;20057;-77
2023/08/23 01:29:13;;;;;;;22.33;16.95;;;;;;;;;;5030075;28;20041;-77
2023/08/23 01:32:10;;;;;;;18.33;16.48;;;;;;;;;;5030343;28;20046;-78
2023/08/23 01:35:08;;;;;;;20.85;15.70;;;;;;;;;;5035829;28;20053;-77
2023/08/23 01:37:55;;;;;;;25.23;16.70;;;;;;;;;;5035964;28;20401;-78
2023/08/23 01:40:44;;;;;;;19.10;16.52;;;;;;;;;;5030259;28;20511;-79
2023/08/23 01:43:29;;;;;;;19.98;16.55;;;;;;;;;;5036027;28;20049;-78
2023/08/23 01:46:15;;;;;;;17.38;15.52;;;;;;;;;;5029854;28;20046;-78
2023/08/23 01:49:01;;;;;;;17.85;15.93;;;;;;;;;;5033784;28;20049;-77
2023/08/23 01:51:47;;;;;;;17.15;15.38;;;;;;;;;;5035544;28;20480;-78
2023/08/23 01:54:32;;;;;;;17.73;15.93;;;;;;;;;;5029844;28;20033;-79
2023/08/23 01:57:18;;;;;;;17.80;16.00;;;;;;;;;;5035989;28;20061;-79
2023/08/23 02:00:04;;;;;;;19.00;16.17;;;;;;;;;;5036927;28;20041;-79
2023/08/23 02:02:59;;;;;;;18.58;16.13;;;;;;;;;;5033625;28;20050;-78
2023/08/23 02:05:45;;;;;;;18.35;16.45;;;;;;;;;;5039568;28;20392;-78
2023/08/23 02:08:30;;;;;;;20.45;17.27;;;;;;;;;;5039102;28;20495;-79
2023/08/23 02:11:14;;;;;;;21.02;15.95;;;;;;;;;;5039789;28;20053;-78
2023/08/23 02:14:00;;;;;;;25.05;17.02;;;;;;;;;;5039203;28;20041;-78
2023/08/23 02:16:48;;;;;;;20.30;17.33;;;;;;;;;;5032457;28;20037;-78
2023/08/23 02:19:33;;;;;;;19.70;16.98;;;;;;;;;;5039808;28;20045;-78
2023/08/23 02:22:19;;;;;;;19.35;16.27;;;;;;;;;;5033364;28;20037;-76
2023/08/23 02:25:04;;;;;;;18.25;16.10;;;;;;;;;;5033550;28;20049;-77
2023/08/23 02:27:49;;;;;;;18.83;15.90;;;;;;;;;;5038721;28;20057;-78
2023/08/23 02:30:35;;;;;;;20.17;17.05;;;;;;;;;;5033695;28;20042;-77
2023/08/23 02:33:20;;;;;;;18.92;16.85;;;;;;;;;;5033305;28;20054;-77
2023/08/23 02:36:06;;;;;;;19.55;16.80;;;;;;;;;;5039004;28;20049;-75
2023/08/23 02:38:53;;;;;;;21.13;16.92;;;;;;;;;;5038859;28;20045;-78
2023/08/23 02:41:40;;;;;;;18.77;16.60;;;;;;;;;;5033197;28;20399;-77
2023/08/23 02:44:25;;;;;;;19.98;17.63;;;;;;;;;;5033132;28;20045;-77
2023/08/23 02:47:11;;;;;;;18.92;15.70;;;;;;;;;;5032875;28;20476;-77
2023/08/23 02:49:56;;;;;;;22.77;17.00;;;;;;;;;;5033386;28;20088;-76
2023/08/23 02:52:42;;;;;;;24.77;17.25;;;;;;;;;;5034772;28;20037;-76
2023/08/23 02:55:28;;;;;;;19.77;17.38;;;;;;;;;;5038516;28;20041;-77
2023/08/23 02:58:14;;;;;;;19.77;17.17;;;;;;;;;;5038122;28;20404;-78
2023/08/23 03:01:02;;;;;;;21.95;17.02;;;;;;;;;;5038065;28;20049;-78
2023/08/23 03:03:49;;;;;;;19.92;16.65;;;;;;;;;;5044046;28;20053;-79
2023/08/23 03:06:34;;;;;;;21.73;17.30;;;;;;;;;;5038034;28;20053;-79
2023/08/23 03:09:20;;;;;;;19.90;16.83;;;;;;;;;;5043418;28;20041;-78
2023/08/23 03:12:06;;;;;;;18.25;16.27;;;;;;;;;;5037022;28;20041;-77
2023/08/23 03:14:51;;;;;;;23.63;17.85;;;;;;;;;;5041590;28;20057;-77
2023/08/23 03:17:35;;;;;;;20.08;17.23;;;;;;;;;;5037752;28;20042;-77
2023/08/23 03:20:22;;;;;;;25.25;17.65;;;;;;;;;;5038037;28;20411;-78
2023/08/23 03:23:08;;;;;;;20.83;17.30;;;;;;;;;;5037712;28;20041;-78
2023/08/23 03:25:53;;;;;;;20.90;17.17;;;;;;;;;;5032646;28;20041;-78
2023/08/23 03:28:40;;;;;;;21.83;16.38;;;;;;;;;;5037594;28;20425;-78
2023/08/23 03:31:28;;;;;;;26.13;17.15;;;;;;;;;;5037340;28;20045;-78
2023/08/23 03:34:14;;;;;;;20.55;17.30;;;;;;;;;;5037953;28;20413;-77
2023/08/23 03:37:00;;;;;;;18.75;15.88;;;;;;;;;;5032208;28;20394;-77
2023/08/23 03:39:45;;;;;;;19.73;16.33;;;;;;;;;;5023553;28;20042;-78
2023/08/23 03:42:30;;;;;;;21.58;16.90;;;;;;;;;;5037764;28;20041;-78
2023/08/23 03:45:18;;;;;;;21.67;16.75;;;;;;;;;;5037093;28;20041;-77
2023/08/23 03:48:05;;;;;;;19.98;17.80;;;;;;;;;;5032034;28;20049;-78
2023/08/23 03:50:50;;;;;;;22.52;18.50;;;;;;;;;;5037575;28;20042;-77
2023/08/23 03:53:35;;;;;;;21.55;16.95;;;;;;;;;;5031989;28;20396;-78
2023/08/23 03:56:20;;;;;;;18.80;16.38;;;;;;;;;;5036874;28;20045;-77
2023/08/23 03:59:05;;;;;;;18.48;16.52;;;;;;;;;;5031427;28;20049;-78
2023/08/23 04:01:51;;;;;;;21.10;16.52;;;;;;;;;;5037457;28;20046;-77
2023/08/23 04:04:36;;;;;;;19.02;16.27;;;;;;;;;;5037489;28;20057;-77
2023/08/23 04:07:21;;;;;;;20.20;16.67;;;;;;;;;;5036207;28;20049;-78
2023/08/23 04:10:07;;;;;;;21.70;18.00;;;;;;;;;;5031273;28;20038;-78
2023/08/23 04:12:53;;;;;;;22.77;16.60;;;;;;;;;;5036625;28;20045;-78
2023/08/23 04:15:43;;;;;;;21.52;17.30;;;;;;;;;;5031337;28;20484;-77
2023/08/23 04:18:28;;;;;;;20.27;16.90;;;;;;;;;;5037068;28;20049;-77
2023/08/23 04:21:15;;;;;;;23.58;16.90;;;;;;;;;;5036817;28;20047;-77
2023/08/23 04:24:01;;;;;;;24.17;17.73;;;;;;;;;;5037039;28;20400;-77
2023/08/23 04:26:46;;;;;;;21.20;17.63;;;;;;;;;;5036888;28;20045;-77
2023/08/23 04:29:31;;;;;;;19.42;16.33;;;;;;;;;;5030819;28;20488;-78
2023/08/23 04:32:16;;;;;;;23.13;17.85;;;;;;;;;;5036569;28;20388;-78
2023/08/23 04:35:02;;;;;;;23.17;18.38;;;;;;;;;;5036448;28;21242;-78
2023/08/23 04:37:47;;;;;;;23.52;17.83;;;;;;;;;;5036704;28;20480;-78
2023/08/23 04:40:33;;;;;;;23.45;17.63;;;;;;;;;;5030431;28;20400;-77
2023/08/23 04:43:19;;;;;;;23.77;18.30;;;;;;;;;;5036233;28;20057;-78
2023/08/23 04:46:07;;;;;;;27.20;18.45;;;;;;;;;;5031090;28;20046;-78
2023/08/23 04:48:52;;;;;;;21.55;17.27;;;;;;;;;;5034615;28;20054;-77
2023/08/23 04:51:37;;;;;;;24.10;16.48;;;;;;;;;;5036713;28;20049;-77
2023/08/23 04:54:23;;;;;;;27.80;16.80;;;;;;;;;;5036134;28;20041;-77
2023/08/23 04:57:09;;;;;;;23.83;17.08;;;;;;;;;;5036205;28;20045;-77
2023/08/23 04:59:54;;;;;;;21.02;15.88;;;;;;;;;;5036442;28;20049;-77
2023/08/23 05:02:40;;;;;;;22.90;16.88;;;;;;;;;;5035676;28;20476;-77
2023/08/23 05:05:25;;;;;;;25.27;17.15;;;;;;;;;;5043055;28;20037;-77
2023/08/23 05:08:11;;;;;;;32.03;17.13;;;;;;;;;;5030276;28;20480;-77
2023/08/23 05:10:56;;;;;;;22.77;15.52;;;;;;;;;;5035885;28;20053;-78
2023/08/23 05:13:42;;;;;;;19.92;15.60;;;;;;;;;;5034537;28;20042;-78
2023/08/23 05:16:27;;;;;;;18.05;14.55;;;;;;;;;;5035523;28;20484;-78
2023/08/23 05:19:13;;;;;;;18.63;14.57;;;;;;;;;;5035230;28;20068;-77
2023/08/23 05:22:01;;;;;;;21.35;16.15;;;;;;;;;;5036038;28;20049;-77
2023/08/23 05:24:46;;;;;;;19.70;14.75;;;;;;;;;;5029676;28;20468;-78
2023/08/23 05:27:32;;;;;;;17.40;14.70;;;;;;;;;;5038712;28;20400;-78
2023/08/23 05:30:18;;;;;;;19.15;13.63;;;;;;;;;;5031692;28;20057;-78
2023/08/23 05:33:03;;;;;;;16.40;14.52;;;;;;;;;;5028893;28;20480;-77
2023/08/23 05:35:49;;;;;;;19.02;14.60;;;;;;;;;;5034927;28;20041;-78
2023/08/23 05:38:34;;;;;;;20.60;14.63;;;;;;;;;;5035117;28;20045;-78
2023/08/23 05:41:23;;;;;;;21.52;13.77;;;;;;;;;;5035340;28;20472;-78
2023/08/23 05:44:08;;;;;;;23.50;15.40;;;;;;;;;;5029751;28;20041;-79
2023/08/23 05:46:54;;;;;;;17.88;15.40;;;;;;;;;;5021768;28;20053;-78
2023/08/23 05:49:40;;;;;;;16.95;15.15;;;;;;;;;;5027772;28;20392;-78
2023/08/23 05:52:25;;;;;;;17.45;14.85;;;;;;;;;;5035456;28;20045;-77
2023/08/23 05:55:10;;;;;;;22.02;15.40;;;;;;;;;;5029582;28;20041;-77
2023/08/23 05:57:55;;;;;;;19.40;14.93;;;;;;;;;;5029345;28;20045;-78
2023/08/23 06:00:41;;;;;;;21.92;14.70;;;;;;;;;;5029656;28;20045;-78
2023/08/23 06:03:27;;;;;;;16.17;13.60;;;;;;;;;;5029376;28;20492;-78
2023/08/23 06:06:13;;;;;;;15.05;13.27;;;;;;;;;;5028892;28;20049;-78
2023/08/23 06:08:58;;;;;;;19.33;13.50;;;;;;;;;;5029388;28;20407;-78
2023/08/23 06:11:43;;;;;;;15.77;13.10;;;;;;;;;;5027456;28;20041;-79
2023/08/23 06:14:29;;;;;;;15.13;12.73;;;;;;;;;;5029687;28;20405;-77
2023/08/23 06:17:14;;;;;;;17.95;14.15;;;;;;;;;;5024966;28;20049;-78
2023/08/23 06:20:00;;;;;;;21.55;14.20;;;;;;;;;;5028233;28;20053;-78
2023/08/23 06:22:46;;;;;;;18.20;14.02;;;;;;;;;;5028898;28;20476;-79
2023/08/23 06:25:31;;;;;;;21.02;15.98;;;;;;;;;;5029529;28;20050;-78
2023/08/23 06:28:17;;;;;;;19.27;15.45;;;;;;;;;;5029124;28;20480;-78
2023/08/23 06:31:02;;;;;;;22.85;15.05;;;;;;;;;;5029252;28;20037;-79
2023/08/23 06:33:48;;;;;;;19.70;16.08;;;;;;;;;;5033414;28;20045;-78
2023/08/23 06:36:34;;;;;;;18.98;15.65;;;;;;;;;;5026586;28;20033;-78
2023/08/23 06:39:19;;;;;;;22.10;15.30;;;;;;;;;;5026303;28;20416;-78
2023/08/23 06:42:05;;;;;;;21.05;14.43;;;;;;;;;;5027162;28;20042;-78
2023/08/23 06:44:50;;;;;;;20.80;15.32;;;;;;;;;;5034804;28;20049;-79
2023/08/23 06:47:37;;;;;;;19.55;15.07;;;;;;;;;;5031266;28;20049;-79
2023/08/23 06:50:21;;;;;;;17.67;15.40;;;;;;;;;;5033161;28;20041;-77
2023/08/23 06:53:07;;;;;;;23.30;15.35;;;;;;;;;;5031698;28;20053;-76
2023/08/23 06:55:53;;;;;;;22.08;15.65;;;;;;;;;;5032894;28;20045;-76
2023/08/23 06:58:38;;;;;;;22.80;15.23;;;;;;;;;;5032953;28;20065;-77
2023/08/23 07:01:24;;;;;;;20.17;14.60;;;;;;;;;;5032433;28;20049;-77
2023/08/23 07:04:10;;;;;;;17.02;14.68;;;;;;;;;;5037676;28;20042;-77
2023/08/23 07:06:55;;;;;;;20.45;14.95;;;;;;;;;;5032811;28;20041;-79
2023/08/23 07:09:41;;;;;;;19.10;14.68;;;;;;;;;;5032185;28;20042;-78
2023/08/23 07:12:27;;;;;;;17.98;14.38;;;;;;;;;;5032730;28;20038;-79
2023/08/23 07:15:13;;;;;;;17.95;14.13;;;;;;;;;;5029876;28;20045;-82
2023/08/23 07:17:58;;;;;;;21.80;14.48;;;;;;;;;;5031783;28;20042;-80
2023/08/23 07:20:44;;;;;;;23.33;14.23;;;;;;;;;;5031937;28;20045;-81
2023/08/23 07:23:29;;;;;;;19.38;14.50;;;;;;;;;;5030477;28;20029;-80
2023/08/23 07:26:15;;;;;;;20.65;14.32;;;;;;;;;;5030562;28;20041;-79
2023/08/23 07:29:00;;;;;;;17.15;13.68;;;;;;;;;;5051219;28;20049;-80
2023/08/23 07:31:46;;;;;;;21.27;14.30;;;;;;;;;;5030362;28;20041;-79
2023/08/23 07:34:33;;;;;;;15.55;13.68;;;;;;;;;;5032353;28;20469;-79
2023/08/23 07:37:19;;;;;;;17.23;14.32;;;;;;;;;;5031124;28;20045;-80
2023/08/23 07:40:06;;;;;;;17.05;14.43;;;;;;;;;;5032312;28;20046;-79
2023/08/23 07:42:51;;;;;;;18.50;14.10;;;;;;;;;;5037043;28;20037;-79
2023/08/23 07:45:37;;;;;;;17.98;13.55;;;;;;;;;;5030812;28;20041;-81
2023/08/23 07:48:22;;;;;;;17.50;13.98;;;;;;;;;;5029949;28;20057;-81
2023/08/23 07:51:08;;;;;;;19.23;14.15;;;;;;;;;;5028712;28;20049;-81
2023/08/23 07:53:53;;;;;;;18.27;15.02;;;;;;;;;;5036196;28;20033;-82
2023/08/23 07:56:38;;;;;;;18.27;13.85;;;;;;;;;;5030486;28;20488;-81
2023/08/23 07:59:24;;;;;;;19.02;14.15;;;;;;;;;;5029943;28;20037;-82
2023/08/23 08:02:09;;;;;;;18.45;14.63;;;;;;;;;;5031160;28;20041;-83
2023/08/23 08:04:54;;;;;;;21.85;13.68;;;;;;;;;;5037047;28;20061;-80
2023/08/23 08:07:39;;;;;;;17.08;13.60;;;;;;;;;;5030865;28;20435;-81
2023/08/23 08:10:25;;;;;;;21.00;13.15;;;;;;;;;;5030447;28;20414;-82
2023/08/23 08:13:10;;;;;;;15.77;12.75;;;;;;;;;;5031365;28;20041;-81
2023/08/23 08:15:56;;;;;;;16.63;12.98;;;;;;;;;;5029590;28;20059;-82
2023/08/23 08:18:43;;;;;;;16.55;13.05;;;;;;;;;;5036133;28;20404;-80
2023/08/23 08:21:28;;;;;;;14.57;13.00;;;;;;;;;;5030906;28;20046;-80
2023/08/23 08:24:13;;;;;;;16.25;13.15;;;;;;;;;;5036428;28;20408;-83
2023/08/23 08:26:59;;;;;;;21.30;12.98;;;;;;;;;;5036821;28;20049;-82
2023/08/23 08:29:45;;;;;;;17.95;13.10;;;;;;;;;;5030687;28;20033;-81
2023/08/23 08:32:30;;;;;;;14.25;12.75;;;;;;;;;;5030140;28;20037;-79
2023/08/23 08:35:16;;;;;;;19.73;13.05;;;;;;;;;;5035777;28;20049;-81
2023/08/23 08:38:01;;;;;;;21.38;14.00;;;;;;;;;;5029216;28;20484;-80
2023/08/23 08:40:47;;;;;;;18.75;13.02;;;;;;;;;;5030996;28;20400;-83
2023/08/23 08:43:33;;;;;;;16.90;12.77;;;;;;;;;;5030348;28;20053;-82
2023/08/23 08:46:18;;;;;;;15.18;12.48;;;;;;;;;;5030015;28;20042;-82
2023/08/23 08:49:04;;;;;;;19.67;13.07;;;;;;;;;;5030457;28;20049;-83
2023/08/23 08:51:52;;;;;;;17.88;13.02;;;;;;;;;;5030545;28;20041;-80
2023/08/23 08:54:41;;;;;;;17.50;13.40;;;;;;;;;;5030295;28;20049;-82
2023/08/23 08:57:28;;;;;;;23.48;13.02;;;;;;;;;;5029597;28;20038;-81
2023/08/23 09:00:13;;;;;;;19.23;12.02;;;;;;;;;;5030545;28;20480;-82
2023/08/23 09:02:59;;;;;;;22.60;12.77;;;;;;;;;;5029485;28;20057;-83
2023/08/23 09:05:47;;;;;;;19.98;12.80;;;;;;;;;;5029335;28;20041;-80
2023/08/23 09:08:33;;;;;;;19.17;12.65;;;;;;;;;;5030163;28;20038;-80
2023/08/23 09:11:18;;;;;;;17.08;12.57;;;;;;;;;;5030393;28;20500;-80
2023/08/23 09:14:18;;;;;;;18.88;12.70;;;;;;;;;;5035478;28;20057;-82
2023/08/23 09:17:04;;;;;;;18.38;11.93;;;;;;;;;;5030435;28;20046;-81
2023/08/23 09:19:51;;;;;;;19.92;12.20;;;;;;;;;;5030324;28;20344;-83
2023/08/23 09:22:37;;;;;;;16.83;12.52;;;;;;;;;;5027464;28;20408;-81
2023/08/23 09:25:23;;;;;;;20.92;12.68;;;;;;;;;;5030214;28;20037;-80
2023/08/23 09:28:12;;;;;;;17.02;10.93;;;;;;;;;;5028431;28;20504;-80
2023/08/23 09:30:58;;;;;;;18.27;11.38;;;;;;;;;;5029894;28;20046;-81
2023/08/23 09:33:45;;;;;;;17.67;11.90;;;;;;;;;;5030043;28;20045;-81
2023/08/23 09:36:40;;;;;;;15.98;11.45;;;;;;;;;;5029818;28;20041;-81
2023/08/23 09:39:25;;;;;;;17.40;11.43;;;;;;;;;;5030063;28;20041;-83
2023/08/23 09:42:14;;;;;;;14.48;11.75;;;;;;;;;;5029925;28;20041;-84
2023/08/23 09:45:02;;;;;;;14.52;11.20;;;;;;;;;;5029239;28;20507;-84
2023/08/23 09:47:59;;;;;;;13.55;10.45;;;;;;;;;;5029117;28;20045;-83
2023/08/23 09:50:46;;;;;;;16.80;10.85;;;;;;;;;;5029657;28;20399;-82
2023/08/23 09:53:38;;;;;;;24.25;11.25;;;;;;;;;;5029664;28;20053;-83
2023/08/23 09:56:24;;;;;;;11.65;10.27;;;;;;;;;;5028627;28;20494;-82
2023/08/23 09:59:11;;;;;;;17.33;10.15;;;;;;;;;;5028621;28;20049;-84
2023/08/23 10:01:59;;;;;;;13.32;8.65;;;;;;;;;;5030293;28;20046;-84
2023/08/23 10:04:45;;;;;;;12.38;9.48;;;;;;;;;;5030184;28;20033;-84
2023/08/23 10:07:33;;;;;;;15.70;9.45;;;;;;;;;;5029583;28;20492;-84
2023/08/23 10:10:18;;;;;;;9.68;8.60;;;;;;;;;;5028044;28;20050;-84
2023/08/23 10:13:06;;;;;;;16.70;8.82;;;;;;;;;;5029978;28;20037;-84
2023/08/23 10:15:55;;;;;;;13.18;8.65;;;;;;;;;;5028625;28;20037;-85
2023/08/23 10:18:42;;;;;;;12.38;8.32;;;;;;;;;;5028556;28;20041;-81
2023/08/23 10:21:27;;;;;;;14.95;8.52;;;;;;;;;;5035009;28;20038;-86
2023/08/23 10:24:12;;;;;;;14.07;8.20;;;;;;;;;;5033300;28;20037;-84
2023/08/23 10:27:06;;;;;;;13.13;8.15;;;;;;;;;;5033452;28;20033;-85
2023/08/23 10:29:52;;;;;;;11.55;8.35;;;;;;;;;;5032522;28;20041;-86
2023/08/23 10:32:37;;;;;;;12.82;8.23;;;;;;;;;;5032670;28;20037;-86
2023/08/23 10:35:36;;;;;;;10.60;8.07;;;;;;;;;;5038724;28;20041;-85
2023/08/23 10:38:22;;;;;;;9.70;8.05;;;;;;;;;;5031945;28;20049;-83
2023/08/23 10:41:17;;;;;;;11.43;8.55;;;;;;;;;;5038205;28;20049;-83
2023/08/23 10:44:02;;;;;;;13.93;8.45;;;;;;;;;;5038873;28;20396;-84
2023/08/23 10:46:51;;;;;;;13.20;7.68;;;;;;;;;;5032303;28;20037;-85
2023/08/23 10:49:38;;;;;;;14.63;8.00;;;;;;;;;;5034660;28;20045;-84
2023/08/23 10:52:23;;;;;;;12.43;8.30;;;;;;;;;;5038422;28;20038;-82
2023/08/23 10:55:09;;;;;;;17.38;7.35;;;;;;;;;;5038729;28;20488;-83
2023/08/23 10:57:54;;;;;;;12.48;7.35;;;;;;;;;;5037789;28;20037;-82
2023/08/23 11:00:41;;;;;;;12.05;7.85;;;;;;;;;;5032831;28;20046;-84
2023/08/23 11:03:31;;;;;;;12.98;7.57;;;;;;;;;;5038261;28;20049;-82
2023/08/23 11:06:17;;;;;;;9.68;6.85;;;;;;;;;;5038588;28;20034;-83
2023/08/23 11:09:02;;;;;;;14.23;8.20;;;;;;;;;;5031596;28;20042;-83
2023/08/23 11:11:48;;;;;;;11.15;8.35;;;;;;;;;;5038377;28;20037;-84
2023/08/23 11:14:34;;;;;;;17.50;7.97;;;;;;;;;;5032116;28;20045;-82
2023/08/23 11:17:20;;;;;;;22.38;8.38;;;;;;;;;;5038182;28;20049;-84
2023/08/23 11:20:06;;;;;;;15.15;8.05;;;;;;;;;;5031455;28;20045;-82
2023/08/23 11:22:51;;;;;;;12.57;7.90;;;;;;;;;;5031209;28;20041;-83
2023/08/23 11:25:36;;;;;;;10.98;8.05;;;;;;;;;;5032313;28;20037;-85
2023/08/23 11:28:22;;;;;;;14.30;7.85;;;;;;;;;;5032125;28;20042;-82
2023/08/23 11:31:08;;;;;;;11.35;7.80;;;;;;;;;;5032026;28;20042;-83
2023/08/23 11:33:56;;;;;;;12.63;8.30;;;;;;;;;;5030548;28;20037;-85
2023/08/23 11:36:43;;;;;;;11.18;7.70;;;;;;;;;;5037551;28;20045;-84
2023/08/23 11:39:28;;;;;;;16.25;8.00;;;;;;;;;;5031361;28;20045;-82
2023/08/23 11:42:15;;;;;;;8.15;7.35;;;;;;;;;;5031358;28;20045;-82
2023/08/23 11:45:05;;;;;;;17.23;8.60;;;;;;;;;;5038047;28;20045;-83
2023/08/23 11:47:54;;;;;;;16.42;7.75;;;;;;;;;;5037491;28;20049;-83
2023/08/23 11:50:39;;;;;;;10.88;8.07;;;;;;;;;;5030773;28;20416;-84
2023/08/23 11:53:24;;;;;;;10.55;8.25;;;;;;;;;;5037742;28;20037;-84
2023/08/23 11:56:10;;;;;;;14.13;7.88;;;;;;;;;;5031959;28;20187;-82
2023/08/23 11:58:55;;;;;;;11.85;8.10;;;;;;;;;;5032090;28;20033;-83
2023/08/23 12:01:44;;;;;;;9.48;7.80;;;;;;;;;;5023492;28;20045;-83
2023/08/23 12:04:29;;;;;;;10.63;8.13;;;;;;;;;;5031791;28;20476;-83
2023/08/23 12:07:14;;;;;;;14.48;8.00;;;;;;;;;;5031658;28;20041;-82
2023/08/23 12:10:00;;;;;;;14.23;8.80;;;;;;;;;;5030857;28;20041;-82
2023/08/23 12:12:45;;;;;;;11.65;7.60;;;;;;;;;;5031611;28;20484;-84
2023/08/23 12:15:31;;;;;;;11.10;7.82;;;;;;;;;;5037082;28;21654;-82
2023/08/23 12:18:16;;;;;;;9.63;7.80;;;;;;;;;;5031363;28;20046;-82
2023/08/23 12:21:02;;;;;;;9.15;7.70;;;;;;;;;;5031544;28;20049;-80
2023/08/23 12:23:48;;;;;;;16.05;7.72;;;;;;;;;;5030793;28;20488;-80
2023/08/23 12:26:33;;;;;;;12.85;8.35;;;;;;;;;;5030549;28;20033;-82
2023/08/23 12:29:19;;;;;;;10.05;8.38;;;;;;;;;;5031015;28;20042;-82
2023/08/23 12:32:05;;;;;;;9.52;7.80;;;;;;;;;;5029776;28;20053;-82
2023/08/23 12:34:51;;;;;;;11.65;7.60;;;;;;;;;;5031058;28;20033;-82
2023/08/23 12:37:36;;;;;;;14.63;8.05;;;;;;;;;;5030669;28;20058;-83
2023/08/23 12:40:22;;;;;;;10.88;7.60;;;;;;;;;;5031327;28;20046;-85
2023/08/23 12:43:08;;;;;;;10.07;7.57;;;;;;;;;;5027918;28;20476;-82
2023/08/23 12:45:53;;;;;;;9.50;7.20;;;;;;;;;;5028209;28;20491;-81
2023/08/23 12:48:39;;;;;;;12.65;6.93;;;;;;;;;;5029344;28;20062;-81
2023/08/23 12:51:24;;;;;;;16.35;7.63;;;;;;;;;;5036332;28;20484;-81
2023/08/23 12:54:10;;;;;;;10.98;7.40;;;;;;;;;;5030853;28;20447;-82
2023/08/23 12:56:55;;;;;;;11.85;7.38;;;;;;;;;;5030822;28;20037;-82
2023/08/23 12:59:41;;;;;;;12.32;7.95;;;;;;;;;;5030783;28;20053;-82
2023/08/23 13:02:26;;;;;;;10.60;7.32;;;;;;;;;;5036329;28;20041;-81
2023/08/23 13:05:12;;;;;;;12.93;7.60;;;;;;;;;;5029467;28;20041;-82
2023/08/23 13:07:58;;;;;;;11.82;7.45;;;;;;;;;;5029658;28;20484;-82
2023/08/23 13:10:43;;;;;;;10.25;8.27;;;;;;;;;;5029832;28;20381;-81
2023/08/23 13:13:29;;;;;;;14.90;8.50;;;;;;;;;;5030292;28;20045;-82
2023/08/23 13:16:14;;;;;;;16.35;8.00;;;;;;;;;;5035740;28;20411;-83
2023/08/23 13:19:00;;;;;;;14.75;7.47;;;;;;;;;;5029024;28;20041;-82
2023/08/23 13:21:46;;;;;;;11.75;7.40;;;;;;;;;;5030564;28;20049;-82
2023/08/23 13:24:31;;;;;;;9.27;7.38;;;;;;;;;;5030346;28;20476;-81
2023/08/23 13:27:17;;;;;;;10.00;6.93;;;;;;;;;;5028985;28;20042;-81
2023/08/23 13:30:28;;;;;;;11.88;7.43;;;;;;;;;;5029233;28;20037;-83
2023/08/23 13:33:13;;;;;;;10.52;7.57;;;;;;;;;;5028983;28;20049;-82
2023/08/23 13:35:59;;;;;;;11.88;7.05;;;;;;;;;;5029655;28;20480;-83
2023/08/23 13:38:44;;;;;;;12.57;7.32;;;;;;;;;;5028861;28;20049;-80
2023/08/23 13:41:30;;;;;;;12.88;7.20;;;;;;;;;;5035793;28;20045;-82
2023/08/23 13:44:35;;;;;;;12.18;7.20;;;;;;;;;;5033564;28;20045;-82
2023/08/23 13:47:21;;;;;;;10.50;6.70;;;;;;;;;;5029216;28;20034;-77
2023/08/23 13:50:09;;;;;;;11.05;7.38;;;;;;;;;;5029967;28;20049;-77
2023/08/23 13:52:54;;;;;;;13.30;6.78;;;;;;;;;;5029806;28;20404;-78
2023/08/23 13:55:40;;;;;;;10.32;6.68;;;;;;;;;;5030388;28;20057;-78
2023/08/23 13:58:25;;;;;;;10.40;6.90;;;;;;;;;;5032145;28;20042;-79
2023/08/23 14:01:11;;;;;;;8.82;6.88;;;;;;;;;;5032554;28;20041;-78
2023/08/23 14:03:56;;;;;;;10.68;6.60;;;;;;;;;;5038152;28;20053;-79
2023/08/23 14:06:42;;;;;;;10.48;6.72;;;;;;;;;;5032563;28;20037;-79
2023/08/23 14:09:28;;;;;;;7.78;6.10;;;;;;;;;;5032364;28;20037;-80
2023/08/23 14:12:13;;;;;;;10.88;7.20;;;;;;;;;;5032927;28;20037;-78
2023/08/23 14:14:58;;;;;;;10.45;6.63;;;;;;;;;;5033310;28;20045;-78
2023/08/23 14:17:43;;;;;;;8.80;6.95;;;;;;;;;;5033321;28;20042;-80
2023/08/23 14:20:29;;;;;;;14.35;7.00;;;;;;;;;;5033037;28;20057;-79
2023/08/23 14:23:14;;;;;;;11.98;7.20;;;;;;;;;;5032052;28;20480;-80
2023/08/23 14:26:03;;;;;;;9.32;6.80;;;;;;;;;;5033714;28;20049;-78
2023/08/23 14:28:48;;;;;;;11.93;6.80;;;;;;;;;;5032848;28;20033;-78
2023/08/23 14:31:34;;;;;;;11.55;7.40;;;;;;;;;;5032951;28;20396;-78
2023/08/23 14:34:20;;;;;;;11.07;7.78;;;;;;;;;;5033519;28;20053;-81
2023/08/23 14:37:05;;;;;;;12.48;8.18;;;;;;;;;;5032397;28;20041;-78
2023/08/23 14:39:51;;;;;;;15.00;7.28;;;;;;;;;;5031889;28;20042;-79
2023/08/23 14:42:41;;;;;;;17.25;7.47;;;;;;;;;;5032526;28;20050;-79
2023/08/23 14:45:27;;;;;;;12.18;7.15;;;;;;;;;;5033129;28;20045;-78
2023/08/23 14:48:13;;;;;;;25.60;8.32;;;;;;;;;;5030343;28;20053;-79
2023/08/23 14:50:58;;;;;;;13.02;7.22;;;;;;;;;;5044691;28;20049;-78
2023/08/23 14:53:44;;;;;;;9.93;7.18;;;;;;;;;;5032771;28;20037;-80
2023/08/23 14:56:29;;;;;;;10.65;6.78;;;;;;;;;;5032190;28;20038;-78
2023/08/23 14:59:15;;;;;;;14.50;6.57;;;;;;;;;;5030833;28;20469;-78
2023/08/23 15:02:01;;;;;;;7.70;6.90;;;;;;;;;;5037183;28;20431;-80
2023/08/23 15:04:46;;;;;;;17.48;6.97;;;;;;;;;;5036807;28;20042;-81
2023/08/23 15:07:31;;;;;;;14.27;7.18;;;;;;;;;;5031668;28;20053;-77
2023/08/23 15:10:17;;;;;;;11.05;7.18;;;;;;;;;;5032055;28;20045;-80
2023/08/23 15:13:02;;;;;;;12.27;6.53;;;;;;;;;;5036994;28;20045;-79
2023/08/23 15:15:56;;;;;;;9.73;7.03;;;;;;;;;;5032115;28;20401;-78
2023/08/23 15:18:43;;;;;;;10.88;6.65;;;;;;;;;;5029603;28;20037;-79
2023/08/23 15:21:31;;;;;;;11.48;6.43;;;;;;;;;;5024597;28;20045;-84
2023/08/23 15:24:16;;;;;;;12.70;6.72;;;;;;;;;;5031296;28;20045;-80
2023/08/23 15:27:03;;;;;;;14.02;6.45;;;;;;;;;;5032125;28;20045;-79
2023/08/23 15:29:47;;;;;;;9.45;6.15;;;;;;;;;;5031798;28;20050;-77
2023/08/23 15:32:33;;;;;;;15.60;7.13;;;;;;;;;;5031350;28;20041;-79
2023/08/23 15:35:18;;;;;;;9.32;6.57;;;;;;;;;;5037768;28;20392;-78
2023/08/23 15:38:04;;;;;;;8.10;6.15;;;;;;;;;;5032277;28;20046;-78
2023/08/23 15:40:50;;;;;;;8.00;6.60;;;;;;;;;;5031152;28;20492;-79
2023/08/23 15:43:35;;;;;;;13.90;6.68;;;;;;;;;;5031488;28;20038;-80
2023/08/23 15:46:21;;;;;;;11.38;7.22;;;;;;;;;;5031116;28;20037;-79
2023/08/23 15:49:06;;;;;;;9.43;6.25;;;;;;;;;;5029668;28;20038;-78
2023/08/23 15:51:54;;;;;;;12.90;6.35;;;;;;;;;;5030489;28;20042;-78
2023/08/23 15:54:39;;;;;;;10.10;6.57;;;;;;;;;;5031581;28;20050;-78
2023/08/23 15:57:24;;;;;;;7.00;5.90;;;;;;;;;;5032004;28;20029;-81
2023/08/23 16:00:12;;;;;;;9.38;6.10;;;;;;;;;;5031384;28;20057;-79
2023/08/23 16:02:59;;;;;;;14.48;6.43;;;;;;;;;;5031359;28;20045;-81
2023/08/23 16:06:06;;;;;;;8.88;6.97;;;;;;;;;;5030995;28;20038;-78
2023/08/23 16:08:52;;;;;;;8.32;7.10;;;;;;;;;;5031212;28;20037;-79
2023/08/23 16:11:37;;;;;;;11.73;7.32;;;;;;;;;;5030730;28;20042;-79
2023/08/23 16:14:24;;;;;;;9.75;6.57;;;;;;;;;;5030447;28;20030;-80
2023/08/23 16:17:10;;;;;;;9.10;6.72;;;;;;;;;;5031175;28;20407;-79